Time;durP1;ratioP1;P1;durP2;ratioP2;P2;SDS_P1;SDS_P2;PMS_P1;PMS_P2;Temp;Humidity;BMP_temperature;BMP_pressure;BME280_temperature;BME280_humidity;BME280_pressure;Samples;Min_cycle;Max_cycle;Signal;HPM_P1;HPM_P2
2021/06/04 00:01:10;;;;;;;7.40;6.70;;;23.40;99.90;;;;;;5039089;28;20432;-73
2021/06/04 00:03:37;;;;;;;7.10;6.50;;;23.40;99.90;;;;;;5033794;28;20433;-74
2021/06/04 00:06:03;;;;;;;6.70;5.80;;;23.40;99.90;;;;;;5032524;28;20476;-74
2021/06/04 00:08:29;;;;;;;6.17;5.67;;;23.40;99.90;;;;;;5032037;28;20872;-74
2021/06/04 00:11:01;;;;;;;7.77;6.97;;;23.30;99.90;;;;;;5046690;28;20415;-74
2021/06/04 00:13:35;;;;;;;6.07;5.50;;;23.30;99.90;;;;;;5032347;28;20252;-75
2021/06/04 00:16:20;;;;;;;6.90;6.20;;;23.30;99.90;;;;;;5032445;28;20446;-74
2021/06/04 00:18:47;;;;;;;6.83;6.23;;;23.20;99.90;;;;;;5028311;28;20466;-75
2021/06/04 00:21:17;;;;;;;6.93;6.40;;;23.20;99.90;;;;;;5032161;28;20415;-75
2021/06/04 00:23:44;;;;;;;7.60;6.47;;;23.10;99.90;;;;;;5031015;28;20503;-74
2021/06/04 00:26:11;;;;;;;6.73;6.13;;;23.10;99.90;;;;;;5030121;28;20438;-74
2021/06/04 00:28:37;;;;;;;6.30;5.70;;;23.10;99.90;;;;;;5032042;28;20458;-74
2021/06/04 00:31:04;;;;;;;7.13;6.37;;;23.00;99.90;;;;;;5031842;28;20419;-75
2021/06/04 00:33:30;;;;;;;5.97;5.43;;;23.10;99.90;;;;;;5026755;28;20485;-74
2021/06/04 00:35:56;;;;;;;6.77;6.23;;;23.10;99.90;;;;;;5031236;28;20455;-74
2021/06/04 00:38:22;;;;;;;7.50;6.00;;;23.10;99.90;;;;;;5030716;28;20435;-74
2021/06/04 00:40:52;;;;;;;7.63;5.90;;;23.00;99.90;;;;;;5031957;28;20237;-74
2021/06/04 00:43:19;;;;;;;6.40;5.90;;;23.00;99.90;;;;;;5026696;28;20207;-74
2021/06/04 00:45:51;;;;;;;8.33;6.30;;;23.00;99.90;;;;;;5031654;28;20824;-74
2021/06/04 00:48:17;;;;;;;6.33;5.83;;;22.90;99.90;;;;;;5031190;28;21122;-74
2021/06/04 00:50:59;;;;;;;7.20;6.50;;;22.80;99.90;;;;;;5031484;28;20432;-74
2021/06/04 00:53:26;;;;;;;6.87;6.27;;;22.80;99.90;;;;;;5027811;28;20829;-74
2021/06/04 00:55:53;;;;;;;6.83;6.23;;;22.80;99.90;;;;;;5031922;28;20427;-74
2021/06/04 00:58:23;;;;;;;7.33;6.60;;;22.70;99.90;;;;;;5031860;28;20427;-74
2021/06/04 01:00:52;;;;;;;7.43;6.73;;;22.60;99.90;;;;;;5030286;28;20457;-73
2021/06/04 01:03:24;;;;;;;6.80;6.20;;;22.60;99.90;;;;;;5031653;28;20829;-74
2021/06/04 01:05:50;;;;;;;7.73;6.60;;;22.60;99.90;;;;;;5028538;28;20833;-74
2021/06/04 01:08:23;;;;;;;7.43;6.73;;;22.60;99.90;;;;;;5029720;28;20520;-74
2021/06/04 01:10:55;;;;;;;6.57;6.07;;;22.60;99.90;;;;;;5031368;28;20180;-74
2021/06/04 01:13:27;;;;;;;7.30;6.60;;;22.50;99.90;;;;;;5030237;28;20411;-74
2021/06/04 01:15:57;;;;;;;12.13;6.83;;;22.60;99.90;;;;;;5027326;28;20439;-74
2021/06/04 01:18:47;;;;;;;7.00;6.50;;;22.60;99.90;;;;;;5030476;28;20450;-74
2021/06/04 01:21:31;;;;;;;6.83;5.83;;;22.60;99.90;;;;;;5025032;28;20453;-74
2021/06/04 01:24:15;;;;;;;7.10;6.60;;;22.60;99.90;;;;;;5028499;28;20827;-74
2021/06/04 01:26:51;;;;;;;9.30;6.73;;;22.60;99.90;;;;;;5030846;28;20418;-74
2021/06/04 01:29:33;;;;;;;6.90;6.30;;;22.60;99.90;;;;;;5031063;28;20450;-75
2021/06/04 01:32:04;;;;;;;8.93;7.13;;;22.50;99.90;;;;;;5029722;28;20510;-74
2021/06/04 01:34:35;;;;;;;8.07;7.13;;;22.50;99.90;;;;;;5030468;28;20899;-74
2021/06/04 01:37:11;;;;;;;7.43;6.83;;;22.40;99.90;;;;;;5030883;28;20530;-74
2021/06/04 01:39:42;;;;;;;6.83;6.23;;;22.40;99.90;;;;;;5030004;28;20860;-74
2021/06/04 01:42:09;;;;;;;6.93;6.40;;;22.40;99.90;;;;;;5027821;28;20496;-74
2021/06/04 01:44:45;;;;;;;8.47;7.77;;;22.40;99.90;;;;;;5024826;28;20461;-74
2021/06/04 01:47:14;;;;;;;8.50;7.73;;;22.40;99.90;;;;;;5030156;28;20434;-74
2021/06/04 01:49:45;;;;;;;7.97;7.30;;;22.40;99.90;;;;;;5029479;28;20541;-74
2021/06/04 01:52:27;;;;;;;7.60;6.90;;;22.30;99.90;;;;;;5027271;28;20434;-74
2021/06/04 01:55:10;;;;;;;7.40;6.63;;;22.40;99.90;;;;;;5029936;28;20502;-75
2021/06/04 01:57:50;;;;;;;7.90;7.20;;;22.30;99.90;;;;;;5030797;28;20879;-75
2021/06/04 02:00:20;;;;;;;7.63;6.93;;;22.20;99.90;;;;;;5028719;28;20457;-74
2021/06/04 02:02:46;;;;;;;7.93;6.63;;;22.20;99.90;;;;;;5028088;28;20518;-74
2021/06/04 02:05:14;;;;;;;6.63;6.03;;;22.20;99.90;;;;;;5029497;28;20517;-75
2021/06/04 02:07:40;;;;;;;7.07;6.47;;;22.20;99.90;;;;;;5030207;28;20423;-74
2021/06/04 02:10:16;;;;;;;7.60;6.90;;;22.20;99.90;;;;;;5029062;28;20493;-74
2021/06/04 02:12:42;;;;;;;7.33;6.63;;;22.20;99.90;;;;;;5029492;28;20653;-74
2021/06/04 02:15:26;;;;;;;7.00;6.40;;;22.20;99.90;;;;;;5029420;28;20469;-74
2021/06/04 02:17:56;;;;;;;6.87;6.27;;;22.20;99.90;;;;;;5030098;28;20396;-74
2021/06/04 02:20:33;;;;;;;7.30;6.60;;;22.20;99.90;;;;;;5029480;28;20452;-74
2021/06/04 02:23:29;;;;;;;7.30;6.60;;;22.30;99.90;;;;;;5029789;28;20403;-74
2021/06/04 02:26:18;;;;;;;7.27;6.57;;;22.30;99.90;;;;;;5030259;28;20467;-74
2021/06/04 02:29:02;;;;;;;9.73;6.80;;;22.20;99.90;;;;;;5027467;28;20467;-74
2021/06/04 02:31:43;;;;;;;7.07;6.37;;;22.20;99.90;;;;;;5029431;28;20427;-74
2021/06/04 02:34:09;;;;;;;6.53;5.97;;;22.20;99.90;;;;;;5030168;28;20446;-74
2021/06/04 02:36:42;;;;;;;8.23;6.83;;;22.20;99.90;;;;;;5030212;28;20407;-74
2021/06/04 02:39:12;;;;;;;7.63;6.83;;;22.20;99.90;;;;;;5029124;28;20204;-74
2021/06/04 02:41:45;;;;;;;9.40;7.07;;;22.20;99.90;;;;;;5029218;28;20785;-74
2021/06/04 02:44:32;;;;;;;7.43;6.83;;;22.20;99.90;;;;;;5025292;28;20534;-74
2021/06/04 02:47:04;;;;;;;7.90;6.87;;;22.20;99.90;;;;;;5023026;28;20428;-74
2021/06/04 02:49:29;;;;;;;6.30;5.80;;;22.20;99.90;;;;;;5030006;28;20467;-74
2021/06/04 02:52:09;;;;;;;6.90;6.30;;;22.20;99.90;;;;;;5029733;28;20513;-74
2021/06/04 02:54:41;;;;;;;7.40;6.73;;;22.10;99.90;;;;;;5030368;28;20176;-74
2021/06/04 02:57:11;;;;;;;7.43;6.83;;;22.10;99.90;;;;;;5025315;28;20530;-74
2021/06/04 02:59:41;;;;;;;8.37;7.37;;;22.10;99.90;;;;;;5030092;28;20432;-74
2021/06/04 03:02:17;;;;;;;7.93;6.40;;;22.10;99.90;;;;;;5030140;28;20929;-74
2021/06/04 03:04:52;;;;;;;7.17;6.47;;;22.10;99.90;;;;;;5033423;28;21035;-74
2021/06/04 03:07:27;;;;;;;15.30;6.43;;;22.20;99.90;;;;;;5022579;28;20430;-74
2021/06/04 03:09:54;;;;;;;7.50;6.80;;;22.20;99.90;;;;;;5029110;28;20795;-74
2021/06/04 03:12:26;;;;;;;6.83;6.23;;;22.20;99.90;;;;;;5028579;28;20458;-74
2021/06/04 03:14:53;;;;;;;8.07;7.37;;;22.20;99.90;;;;;;5031857;28;20431;-74
2021/06/04 03:17:22;;;;;;;8.47;7.53;;;22.20;99.90;;;;;;5028923;28;20443;-74
2021/06/04 03:19:47;;;;;;;6.67;6.07;;;22.20;99.90;;;;;;5028373;28;20448;-74
2021/06/04 03:22:18;;;;;;;7.87;6.23;;;22.20;99.90;;;;;;5029296;28;20955;-73
2021/06/04 03:24:44;;;;;;;7.53;6.83;;;22.20;99.90;;;;;;5028047;28;20192;-74
2021/06/04 03:27:13;;;;;;;8.37;7.57;;;22.20;99.90;;;;;;5027449;28;20477;-74
2021/06/04 03:29:39;;;;;;;7.23;6.63;;;22.20;99.90;;;;;;5028286;28;20557;-73
2021/06/04 03:32:10;;;;;;;7.03;6.43;;;22.10;99.90;;;;;;5032566;28;20502;-74
2021/06/04 03:34:37;;;;;;;8.73;6.50;;;22.10;99.90;;;;;;5030847;28;20599;-74
2021/06/04 03:37:05;;;;;;;7.40;6.70;;;22.10;99.90;;;;;;5031950;28;20953;-74
2021/06/04 03:39:38;;;;;;;7.43;6.83;;;22.00;99.90;;;;;;5032796;28;20439;-74
2021/06/04 03:42:06;;;;;;;7.30;6.60;;;22.00;99.90;;;;;;5031048;28;20453;-74
2021/06/04 03:44:34;;;;;;;7.63;6.93;;;21.80;99.90;;;;;;5027372;28;20841;-74
2021/06/04 03:47:00;;;;;;;7.20;6.60;;;21.80;99.90;;;;;;5032527;28;20698;-74
2021/06/04 03:49:27;;;;;;;6.90;6.20;;;21.80;99.90;;;;;;5032618;28;20461;-74
2021/06/04 03:51:57;;;;;;;7.10;6.50;;;21.80;99.90;;;;;;5031764;28;20183;-74
2021/06/04 03:54:29;;;;;;;6.60;6.00;;;21.80;99.90;;;;;;5032836;28;20894;-74
2021/06/04 03:56:56;;;;;;;6.90;6.03;;;21.90;99.90;;;;;;5032770;28;20415;-74
2021/06/04 03:59:22;;;;;;;7.43;6.73;;;21.90;99.90;;;;;;5033100;28;21046;-74
2021/06/04 04:01:55;;;;;;;6.80;6.20;;;21.90;99.90;;;;;;5031112;28;20550;-74
2021/06/04 04:04:21;;;;;;;9.00;6.73;;;21.90;99.90;;;;;;5031564;28;20451;-75
2021/06/04 04:06:47;;;;;;;7.73;7.03;;;21.80;99.90;;;;;;5032980;28;20411;-74
2021/06/04 04:09:13;;;;;;;7.13;6.47;;;21.70;99.90;;;;;;5032543;28;20484;-74
2021/06/04 04:11:41;;;;;;;7.47;6.60;;;21.70;99.90;;;;;;5030710;28;20576;-74
2021/06/04 04:14:07;;;;;;;8.53;6.40;;;21.70;99.90;;;;;;5031193;28;20845;-74
2021/06/04 04:16:35;;;;;;;6.83;6.23;;;21.60;99.90;;;;;;5038288;28;20426;-74
2021/06/04 04:19:01;;;;;;;6.87;6.27;;;21.60;99.90;;;;;;5033247;28;20471;-74
2021/06/04 04:21:27;;;;;;;6.93;6.23;;;21.60;99.90;;;;;;5032068;28;20418;-74
2021/06/04 04:23:57;;;;;;;6.40;5.80;;;21.40;99.90;;;;;;5032282;28;20411;-74
2021/06/04 04:26:28;;;;;;;6.23;5.73;;;21.30;99.90;;;;;;5030429;28;20863;-74
2021/06/04 04:28:55;;;;;;;7.30;6.70;;;21.40;99.90;;;;;;5031308;28;20458;-74
2021/06/04 04:31:25;;;;;;;7.87;7.07;;;21.40;99.90;;;;;;5031887;28;20789;-74
2021/06/04 04:33:52;;;;;;;7.33;6.63;;;21.50;99.90;;;;;;5031943;28;20407;-75
2021/06/04 04:36:19;;;;;;;5.67;5.17;;;21.60;99.90;;;;;;5030467;28;20449;-74
2021/06/04 04:38:45;;;;;;;7.07;6.37;;;21.60;99.90;;;;;;5031876;28;20961;-75
2021/06/04 04:41:12;;;;;;;7.57;6.80;;;21.60;99.90;;;;;;5031868;28;20938;-75
2021/06/04 04:43:40;;;;;;;10.03;8.10;;;21.70;99.90;;;;;;5028922;28;20876;-75
2021/06/04 04:46:08;;;;;;;11.27;7.97;;;21.80;99.90;;;;;;5029979;28;20890;-75
2021/06/04 04:48:34;;;;;;;8.53;7.67;;;21.80;99.90;;;;;;5031615;28;20427;-75
2021/06/04 04:51:00;;;;;;;10.17;8.47;;;21.90;99.90;;;;;;5031660;28;20446;-75
2021/06/04 04:53:26;;;;;;;12.23;10.43;;;22.00;99.90;;;;;;5031902;28;20435;-75
2021/06/04 04:55:52;;;;;;;10.67;9.73;;;22.00;99.90;;;;;;5031042;28;20197;-77
2021/06/04 04:58:18;;;;;;;10.80;9.80;;;22.00;99.90;;;;;;5029759;28;20208;-76
2021/06/04 05:00:45;;;;;;;9.77;8.30;;;22.10;99.90;;;;;;5030964;28;20917;-75
2021/06/04 05:03:12;;;;;;;9.40;8.60;;;22.10;99.90;;;;;;5029424;28;20438;-76
2021/06/04 05:05:39;;;;;;;10.70;9.70;;;22.20;99.90;;;;;;5032668;28;20455;-78
2021/06/04 05:08:06;;;;;;;10.27;9.20;;;22.20;99.90;;;;;;5029502;28;20430;-77
2021/06/04 05:10:33;;;;;;;7.00;6.40;;;22.20;99.90;;;;;;5029987;28;20515;-75
2021/06/04 05:12:59;;;;;;;7.97;6.80;;;22.20;99.90;;;;;;5032493;28;20525;-75
2021/06/04 05:15:30;;;;;;;8.23;7.37;;;22.10;99.90;;;;;;5031272;28;20942;-73
2021/06/04 05:17:56;;;;;;;8.20;7.50;;;22.10;99.90;;;;;;5031811;28;20409;-75
2021/06/04 05:20:23;;;;;;;7.40;6.70;;;22.10;99.90;;;;;;5029422;28;20435;-74
2021/06/04 05:22:49;;;;;;;8.40;7.60;;;22.20;99.90;;;;;;5031927;28;20780;-76
2021/06/04 05:25:19;;;;;;;7.90;7.10;;;22.20;99.90;;;;;;5027249;28;20461;-73
2021/06/04 05:27:45;;;;;;;8.40;7.60;;;22.20;99.90;;;;;;5024558;28;20521;-76
2021/06/04 05:30:28;;;;;;;12.20;8.03;;;22.20;99.90;;;;;;5022308;28;20451;-77
2021/06/04 05:32:55;;;;;;;8.20;7.50;;;22.20;99.90;;;;;;5028477;28;20423;-75
2021/06/04 05:35:21;;;;;;;7.93;7.23;;;22.30;99.90;;;;;;5029949;28;20964;-76
2021/06/04 05:37:47;;;;;;;9.37;7.20;;;22.30;99.90;;;;;;5028569;28;20423;-74
2021/06/04 05:40:17;;;;;;;8.00;7.27;;;22.30;99.90;;;;;;5032545;28;20443;-75
2021/06/04 05:42:43;;;;;;;8.90;8.10;;;22.30;99.90;;;;;;5030897;28;20181;-74
2021/06/04 05:45:10;;;;;;;7.87;7.17;;;22.30;99.90;;;;;;5026022;28;20979;-74
2021/06/04 05:47:35;;;;;;;9.03;8.23;;;22.20;99.90;;;;;;5029882;28;20477;-74
2021/06/04 05:50:02;;;;;;;8.10;7.40;;;22.20;99.90;;;;;;5031511;28;20439;-75
2021/06/04 05:52:27;;;;;;;8.73;7.93;;;22.20;99.90;;;;;;5030190;28;20214;-74
2021/06/04 05:54:53;;;;;;;9.70;8.13;;;22.20;99.90;;;;;;5031178;28;20438;-74
2021/06/04 05:57:19;;;;;;;9.33;8.43;;;22.10;99.90;;;;;;5014468;28;20550;-74
2021/06/04 05:59:44;;;;;;;8.97;8.17;;;22.20;99.90;;;;;;5028580;28;20204;-74
2021/06/04 06:02:11;;;;;;;9.90;8.90;;;22.20;99.90;;;;;;5010619;28;20208;-74
2021/06/04 06:04:40;;;;;;;9.20;8.20;;;22.30;99.90;;;;;;5025923;28;20200;-74
2021/06/04 06:07:06;;;;;;;9.17;8.27;;;22.30;99.90;;;;;;5028758;28;20419;-74
2021/06/04 06:09:31;;;;;;;10.87;7.60;;;22.40;99.90;;;;;;5029303;28;20492;-75
2021/06/04 06:11:57;;;;;;;9.57;8.77;;;22.40;99.90;;;;;;5029131;28;20233;-75
2021/06/04 06:14:22;;;;;;;7.93;7.23;;;22.50;99.90;;;;;;5034282;28;20201;-74
2021/06/04 06:16:48;;;;;;;7.97;7.23;;;22.50;99.90;;;;;;5028974;28;20204;-75
2021/06/04 06:19:16;;;;;;;7.63;7.03;;;22.60;99.90;;;;;;5036709;28;20666;-75
2021/06/04 06:21:45;;;;;;;8.93;8.13;;;22.70;99.90;;;;;;5028303;28;20594;-75
2021/06/04 06:24:11;;;;;;;7.77;7.07;;;22.70;99.90;;;;;;5047725;28;20466;-74
2021/06/04 06:26:38;;;;;;;8.47;7.77;;;22.80;99.90;;;;;;5030237;28;20577;-74
2021/06/04 06:29:04;;;;;;;7.23;6.60;;;22.80;99.90;;;;;;5026147;28;20884;-75
2021/06/04 06:31:34;;;;;;;8.00;7.30;;;22.80;99.90;;;;;;5027000;28;20419;-75
2021/06/04 06:34:01;;;;;;;8.00;6.53;;;22.80;99.90;;;;;;5034404;28;20412;-75
2021/06/04 06:36:30;;;;;;;8.10;7.40;;;22.90;99.90;;;;;;5024602;28;20426;-75
2021/06/04 06:38:58;;;;;;;8.07;7.47;;;22.90;99.90;;;;;;5032841;28;20573;-75
2021/06/04 06:41:26;;;;;;;7.97;7.27;;;23.00;99.90;;;;;;5031113;28;20469;-74
2021/06/04 06:43:52;;;;;;;7.23;6.63;;;23.10;99.90;;;;;;5029920;28;20522;-74
2021/06/04 06:46:22;;;;;;;7.90;7.10;;;23.10;99.90;;;;;;5029216;28;20423;-71
2021/06/04 06:48:48;;;;;;;9.00;7.47;;;23.20;99.90;;;;;;5028044;28;20466;-71
2021/06/04 06:51:16;;;;;;;8.47;7.73;;;23.30;99.90;;;;;;5030040;28;20409;-70
2021/06/04 06:53:42;;;;;;;10.70;9.70;;;23.40;99.90;;;;;;5030165;28;20199;-71
2021/06/04 06:56:10;;;;;;;13.20;8.37;;;23.40;99.90;;;;;;5028787;28;20431;-74
2021/06/04 06:58:36;;;;;;;9.13;8.30;;;23.50;99.90;;;;;;5029763;28;20469;-74
2021/06/04 07:01:04;;;;;;;9.00;8.20;;;23.60;99.90;;;;;;5028176;28;20934;-74
2021/06/04 07:03:33;;;;;;;8.60;7.90;;;23.70;99.90;;;;;;5025591;28;20427;-74
2021/06/04 07:06:01;;;;;;;8.90;7.80;;;23.70;99.90;;;;;;5028803;28;20566;-74
2021/06/04 07:08:27;;;;;;;12.40;8.90;;;23.70;99.90;;;;;;5033796;28;20999;-74
2021/06/04 07:10:53;;;;;;;9.90;8.60;;;23.60;99.90;;;;;;5037129;28;20423;-74
2021/06/04 07:13:27;;;;;;;9.43;8.40;;;23.80;99.90;;;;;;5032263;28;20948;-74
2021/06/04 07:16:09;;;;;;;9.00;8.17;;;23.80;99.90;;;;;;5035415;28;20203;-73
2021/06/04 07:18:36;;;;;;;8.23;7.40;;;23.90;99.90;;;;;;5031410;28;20512;-73
2021/06/04 07:21:03;;;;;;;7.80;7.00;;;23.80;99.90;;;;;;5040837;28;20501;-73
2021/06/04 07:23:30;;;;;;;9.60;8.70;;;23.90;99.90;;;;;;5033330;28;21095;-73
2021/06/04 07:25:56;;;;;;;9.83;8.93;;;24.00;99.90;;;;;;5026156;28;20573;-73
2021/06/04 07:28:26;;;;;;;9.07;8.20;;;24.00;99.90;;;;;;5032961;28;20459;-73
2021/06/04 07:30:53;;;;;;;9.60;8.70;;;24.10;99.90;;;;;;5032538;28;20509;-73
2021/06/04 07:33:44;;;;;;;9.73;8.73;;;24.10;99.90;;;;;;5030971;28;20906;-73
2021/06/04 07:36:14;;;;;;;8.60;7.70;;;24.10;99.90;;;;;;5029984;28;20454;-73
2021/06/04 07:38:39;;;;;;;9.50;8.67;;;24.20;99.90;;;;;;5031898;28;20470;-73
2021/06/04 07:41:07;;;;;;;9.93;9.13;;;24.20;99.90;;;;;;5032763;28;20415;-73
2021/06/04 07:43:35;;;;;;;9.93;9.00;;;24.30;99.90;;;;;;5033186;28;20243;-73
2021/06/04 07:46:02;;;;;;;8.37;7.67;;;24.40;99.90;;;;;;5028783;28;20706;-73
2021/06/04 07:48:28;;;;;;;8.80;8.00;;;24.50;99.90;;;;;;5036588;28;20949;-73
2021/06/04 07:50:56;;;;;;;9.10;8.20;;;24.60;99.90;;;;;;5047861;28;20410;-73
2021/06/04 07:53:26;;;;;;;9.50;8.57;;;24.50;99.90;;;;;;5053002;28;20168;-72
2021/06/04 07:55:52;;;;;;;8.37;7.50;;;24.60;99.90;;;;;;5030220;28;20481;-73
2021/06/04 07:58:19;;;;;;;9.87;8.97;;;24.70;99.90;;;;;;5032649;28;20522;-74
2021/06/04 08:00:44;;;;;;;8.90;8.10;;;24.80;99.90;;;;;;5032501;28;20181;-74
2021/06/04 08:03:11;;;;;;;12.20;9.60;;;24.90;99.90;;;;;;5032051;28;20538;-73
2021/06/04 08:05:38;;;;;;;8.93;8.03;;;25.00;99.90;;;;;;5031759;28;20291;-73
2021/06/04 08:08:08;;;;;;;7.40;6.70;;;25.20;99.90;;;;;;5027626;28;20431;-73
2021/06/04 08:10:35;;;;;;;8.80;7.23;;;25.20;99.90;;;;;;5039641;28;20414;-74
2021/06/04 08:13:01;;;;;;;7.63;7.03;;;25.20;99.90;;;;;;5024470;28;20438;-74
2021/06/04 08:15:34;;;;;;;8.90;8.00;;;25.10;99.90;;;;;;5029388;28;20447;-74
